sensor_id;sensor_type;location;lat;lon;timestamp;P1;durP1;ratioP1;P2;durP2;ratioP2
69030;SDS011;56083;48.774;8.942;2023-06-14T00:00:32;10.57;;;3.85;;
69030;SDS011;56083;48.774;8.942;2023-06-14T00:02:59;7.40;;;4.20;;
69030;SDS011;56083;48.774;8.942;2023-06-14T00:05:25;5.90;;;3.60;;
69030;SDS011;56083;48.774;8.942;2023-06-14T00:07:51;9.35;;;3.95;;
69030;SDS011;56083;48.774;8.942;2023-06-14T00:10:18;10.00;;;4.50;;
69030;SDS011;56083;48.774;8.942;2023-06-14T00:12:44;11.68;;;4.00;;
69030;SDS011;56083;48.774;8.942;2023-06-14T00:15:09;7.22;;;4.00;;
69030;SDS011;56083;48.774;8.942;2023-06-14T00:17:35;9.40;;;4.43;;
69030;SDS011;56083;48.774;8.942;2023-06-14T00:20:04;7.43;;;4.35;;
69030;SDS011;56083;48.774;8.942;2023-06-14T00:22:33;7.80;;;3.83;;
69030;SDS011;56083;48.774;8.942;2023-06-14T00:25:00;7.10;;;3.97;;
69030;SDS011;56083;48.774;8.942;2023-06-14T00:27:25;6.65;;;3.60;;
69030;SDS011;56083;48.774;8.942;2023-06-14T00:29:51;8.60;;;4.07;;
69030;SDS011;56083;48.774;8.942;2023-06-14T00:32:18;9.07;;;4.10;;
69030;SDS011;56083;48.774;8.942;2023-06-14T00:34:43;8.90;;;3.67;;
69030;SDS011;56083;48.774;8.942;2023-06-14T00:37:09;7.72;;;3.92;;
69030;SDS011;56083;48.774;8.942;2023-06-14T00:39:35;6.60;;;3.78;;
69030;SDS011;56083;48.774;8.942;2023-06-14T00:42:00;8.52;;;4.30;;
69030;SDS011;56083;48.774;8.942;2023-06-14T00:44:26;14.18;;;4.60;;
69030;SDS011;56083;48.774;8.942;2023-06-14T00:46:51;8.57;;;4.00;;
69030;SDS011;56083;48.774;8.942;2023-06-14T00:49:17;7.93;;;4.18;;
69030;SDS011;56083;48.774;8.942;2023-06-14T00:51:44;6.82;;;4.07;;
69030;SDS011;56083;48.774;8.942;2023-06-14T00:54:10;7.68;;;4.07;;
69030;SDS011;56083;48.774;8.942;2023-06-14T00:56:37;8.43;;;4.15;;
69030;SDS011;56083;48.774;8.942;2023-06-14T00:59:02;9.23;;;4.43;;
69030;SDS011;56083;48.774;8.942;2023-06-14T01:01:29;7.22;;;4.72;;
69030;SDS011;56083;48.774;8.942;2023-06-14T01:03:57;9.68;;;4.45;;
69030;SDS011;56083;48.774;8.942;2023-06-14T01:14:41;9.90;;;4.60;;
69030;SDS011;56083;48.774;8.942;2023-06-14T01:17:07;12.40;;;5.10;;
69030;SDS011;56083;48.774;8.942;2023-06-14T01:19:41;10.93;;;4.53;;
69030;SDS011;56083;48.774;8.942;2023-06-14T01:22:07;11.93;;;4.65;;
69030;SDS011;56083;48.774;8.942;2023-06-14T01:24:33;9.98;;;4.72;;
69030;SDS011;56083;48.774;8.942;2023-06-14T01:26:59;12.70;;;4.65;;
69030;SDS011;56083;48.774;8.942;2023-06-14T01:29:26;18.42;;;4.85;;
69030;SDS011;56083;48.774;8.942;2023-06-14T01:31:57;14.95;;;4.97;;
69030;SDS011;56083;48.774;8.942;2023-06-14T01:34:23;10.82;;;4.75;;
69030;SDS011;56083;48.774;8.942;2023-06-14T01:36:50;12.73;;;4.35;;
69030;SDS011;56083;48.774;8.942;2023-06-14T01:39:19;7.80;;;4.82;;
69030;SDS011;56083;48.774;8.942;2023-06-14T01:41:49;8.13;;;4.53;;
69030;SDS011;56083;48.774;8.942;2023-06-14T01:44:16;8.85;;;4.40;;
69030;SDS011;56083;48.774;8.942;2023-06-14T01:46:43;7.57;;;4.82;;
69030;SDS011;56083;48.774;8.942;2023-06-14T01:49:10;7.68;;;4.43;;
69030;SDS011;56083;48.774;8.942;2023-06-14T01:51:36;13.57;;;4.53;;
69030;SDS011;56083;48.774;8.942;2023-06-14T01:54:02;10.82;;;4.40;;
69030;SDS011;56083;48.774;8.942;2023-06-14T01:56:27;8.75;;;5.05;;
69030;SDS011;56083;48.774;8.942;2023-06-14T01:58:53;11.65;;;5.25;;
69030;SDS011;56083;48.774;8.942;2023-06-14T02:01:19;10.82;;;4.78;;
69030;SDS011;56083;48.774;8.942;2023-06-14T02:03:46;11.48;;;4.75;;
69030;SDS011;56083;48.774;8.942;2023-06-14T02:06:13;10.73;;;5.00;;
69030;SDS011;56083;48.774;8.942;2023-06-14T02:08:40;10.65;;;4.57;;
69030;SDS011;56083;48.774;8.942;2023-06-14T02:11:06;8.52;;;4.90;;
69030;SDS011;56083;48.774;8.942;2023-06-14T02:13:32;9.93;;;4.82;;
69030;SDS011;56083;48.774;8.942;2023-06-14T02:15:59;11.32;;;5.22;;
69030;SDS011;56083;48.774;8.942;2023-06-14T02:18:25;10.65;;;4.90;;
69030;SDS011;56083;48.774;8.942;2023-06-14T02:20:51;10.40;;;4.60;;
69030;SDS011;56083;48.774;8.942;2023-06-14T02:23:17;12.98;;;5.18;;
69030;SDS011;56083;48.774;8.942;2023-06-14T02:25:42;8.15;;;4.93;;
69030;SDS011;56083;48.774;8.942;2023-06-14T02:28:09;8.63;;;4.82;;
69030;SDS011;56083;48.774;8.942;2023-06-14T02:30:35;6.88;;;4.47;;
69030;SDS011;56083;48.774;8.942;2023-06-14T02:33:01;8.45;;;4.60;;
69030;SDS011;56083;48.774;8.942;2023-06-14T02:35:27;12.00;;;4.85;;
69030;SDS011;56083;48.774;8.942;2023-06-14T02:37:53;6.82;;;4.50;;
69030;SDS011;56083;48.774;8.942;2023-06-14T02:40:19;9.55;;;4.70;;
69030;SDS011;56083;48.774;8.942;2023-06-14T02:42:45;11.15;;;4.70;;
69030;SDS011;56083;48.774;8.942;2023-06-14T02:45:10;8.55;;;4.55;;
69030;SDS011;56083;48.774;8.942;2023-06-14T02:47:36;11.50;;;5.15;;
69030;SDS011;56083;48.774;8.942;2023-06-14T02:50:02;8.95;;;4.63;;
69030;SDS011;56083;48.774;8.942;2023-06-14T02:52:28;8.77;;;4.90;;
69030;SDS011;56083;48.774;8.942;2023-06-14T02:54:53;10.50;;;5.18;;
69030;SDS011;56083;48.774;8.942;2023-06-14T02:57:19;10.95;;;4.47;;
69030;SDS011;56083;48.774;8.942;2023-06-14T02:59:45;9.77;;;5.15;;
69030;SDS011;56083;48.774;8.942;2023-06-14T03:02:11;8.95;;;4.82;;
69030;SDS011;56083;48.774;8.942;2023-06-14T03:04:37;8.25;;;5.15;;
69030;SDS011;56083;48.774;8.942;2023-06-14T03:07:03;16.30;;;5.38;;
69030;SDS011;56083;48.774;8.942;2023-06-14T03:09:37;8.77;;;5.20;;
69030;SDS011;56083;48.774;8.942;2023-06-14T03:12:03;11.20;;;4.95;;
69030;SDS011;56083;48.774;8.942;2023-06-14T03:14:30;15.18;;;5.80;;
69030;SDS011;56083;48.774;8.942;2023-06-14T03:16:56;11.70;;;5.07;;
69030;SDS011;56083;48.774;8.942;2023-06-14T03:19:22;11.35;;;5.00;;
69030;SDS011;56083;48.774;8.942;2023-06-14T03:21:48;12.73;;;4.90;;
69030;SDS011;56083;48.774;8.942;2023-06-14T03:24:14;8.98;;;5.18;;
69030;SDS011;56083;48.774;8.942;2023-06-14T03:26:43;8.88;;;5.00;;
69030;SDS011;56083;48.774;8.942;2023-06-14T03:29:08;9.80;;;5.07;;
69030;SDS011;56083;48.774;8.942;2023-06-14T03:31:34;8.15;;;4.57;;
69030;SDS011;56083;48.774;8.942;2023-06-14T03:34:00;10.27;;;5.25;;
69030;SDS011;56083;48.774;8.942;2023-06-14T03:36:27;11.50;;;5.32;;
69030;SDS011;56083;48.774;8.942;2023-06-14T03:38:55;7.97;;;5.38;;
69030;SDS011;56083;48.774;8.942;2023-06-14T03:41:21;10.55;;;5.72;;
69030;SDS011;56083;48.774;8.942;2023-06-14T03:43:46;8.55;;;5.15;;
69030;SDS011;56083;48.774;8.942;2023-06-14T03:46:12;13.45;;;5.95;;
69030;SDS011;56083;48.774;8.942;2023-06-14T03:48:38;9.93;;;5.70;;
69030;SDS011;56083;48.774;8.942;2023-06-14T03:51:03;10.55;;;5.40;;
69030;SDS011;56083;48.774;8.942;2023-06-14T03:53:29;10.88;;;5.35;;
69030;SDS011;56083;48.774;8.942;2023-06-14T03:55:55;8.82;;;5.43;;
69030;SDS011;56083;48.774;8.942;2023-06-14T03:58:22;8.32;;;4.93;;
69030;SDS011;56083;48.774;8.942;2023-06-14T04:00:48;7.75;;;4.90;;
69030;SDS011;56083;48.774;8.942;2023-06-14T04:03:13;9.43;;;5.45;;
69030;SDS011;56083;48.774;8.942;2023-06-14T04:05:40;9.25;;;4.80;;
69030;SDS011;56083;48.774;8.942;2023-06-14T04:08:07;9.98;;;5.07;;
69030;SDS011;56083;48.774;8.942;2023-06-14T04:10:34;13.35;;;5.00;;
69030;SDS011;56083;48.774;8.942;2023-06-14T04:12:59;8.57;;;5.10;;
69030;SDS011;56083;48.774;8.942;2023-06-14T04:15:25;10.05;;;5.22;;
69030;SDS011;56083;48.774;8.942;2023-06-14T04:17:53;7.45;;;4.80;;
69030;SDS011;56083;48.774;8.942;2023-06-14T04:20:22;9.82;;;4.90;;
69030;SDS011;56083;48.774;8.942;2023-06-14T04:22:50;10.63;;;4.93;;
69030;SDS011;56083;48.774;8.942;2023-06-14T04:25:16;11.00;;;5.10;;
69030;SDS011;56083;48.774;8.942;2023-06-14T04:27:42;7.55;;;4.80;;
69030;SDS011;56083;48.774;8.942;2023-06-14T04:30:09;7.60;;;4.55;;
69030;SDS011;56083;48.774;8.942;2023-06-14T04:32:34;8.45;;;4.93;;
69030;SDS011;56083;48.774;8.942;2023-06-14T04:35:04;11.40;;;4.95;;
69030;SDS011;56083;48.774;8.942;2023-06-14T04:37:33;11.52;;;5.22;;
69030;SDS011;56083;48.774;8.942;2023-06-14T04:39:59;11.85;;;5.55;;
69030;SDS011;56083;48.774;8.942;2023-06-14T04:42:25;10.68;;;5.68;;
69030;SDS011;56083;48.774;8.942;2023-06-14T04:44:56;8.52;;;5.45;;
69030;SDS011;56083;48.774;8.942;2023-06-14T04:47:21;9.70;;;5.68;;
69030;SDS011;56083;48.774;8.942;2023-06-14T04:49:49;8.73;;;5.75;;
69030;SDS011;56083;48.774;8.942;2023-06-14T04:52:17;13.23;;;5.40;;
69030;SDS011;56083;48.774;8.942;2023-06-14T04:54:46;9.57;;;5.88;;
69030;SDS011;56083;48.774;8.942;2023-06-14T04:57:12;10.55;;;5.78;;
69030;SDS011;56083;48.774;8.942;2023-06-14T04:59:43;11.80;;;5.57;;
69030;SDS011;56083;48.774;8.942;2023-06-14T05:02:09;10.00;;;5.78;;
69030;SDS011;56083;48.774;8.942;2023-06-14T05:04:36;14.95;;;6.25;;
69030;SDS011;56083;48.774;8.942;2023-06-14T05:07:05;16.73;;;5.45;;
69030;SDS011;56083;48.774;8.942;2023-06-14T05:09:34;14.95;;;6.43;;
69030;SDS011;56083;48.774;8.942;2023-06-14T05:12:01;13.75;;;6.15;;
69030;SDS011;56083;48.774;8.942;2023-06-14T05:14:26;9.25;;;5.45;;
69030;SDS011;56083;48.774;8.942;2023-06-14T05:16:52;10.00;;;5.70;;
69030;SDS011;56083;48.774;8.942;2023-06-14T05:19:18;9.98;;;5.55;;
69030;SDS011;56083;48.774;8.942;2023-06-14T05:21:45;11.45;;;5.88;;
69030;SDS011;56083;48.774;8.942;2023-06-14T05:24:12;10.18;;;5.68;;
69030;SDS011;56083;48.774;8.942;2023-06-14T05:26:39;10.57;;;6.13;;
69030;SDS011;56083;48.774;8.942;2023-06-14T05:29:05;11.65;;;5.72;;
69030;SDS011;56083;48.774;8.942;2023-06-14T05:31:30;14.55;;;5.97;;
69030;SDS011;56083;48.774;8.942;2023-06-14T05:33:56;14.50;;;6.10;;
69030;SDS011;56083;48.774;8.942;2023-06-14T05:36:22;18.73;;;6.07;;
69030;SDS011;56083;48.774;8.942;2023-06-14T05:38:47;10.45;;;5.38;;
69030;SDS011;56083;48.774;8.942;2023-06-14T05:41:13;8.50;;;5.20;;
69030;SDS011;56083;48.774;8.942;2023-06-14T05:43:39;11.73;;;5.40;;
69030;SDS011;56083;48.774;8.942;2023-06-14T05:46:05;16.75;;;5.60;;
69030;SDS011;56083;48.774;8.942;2023-06-14T05:48:30;9.27;;;5.15;;
69030;SDS011;56083;48.774;8.942;2023-06-14T05:50:56;11.38;;;5.07;;
69030;SDS011;56083;48.774;8.942;2023-06-14T05:53:22;12.60;;;5.20;;
69030;SDS011;56083;48.774;8.942;2023-06-14T05:55:49;19.05;;;5.53;;
69030;SDS011;56083;48.774;8.942;2023-06-14T05:58:19;16.45;;;5.47;;
69030;SDS011;56083;48.774;8.942;2023-06-14T06:00:45;10.98;;;5.05;;
69030;SDS011;56083;48.774;8.942;2023-06-14T06:03:11;12.57;;;5.15;;
69030;SDS011;56083;48.774;8.942;2023-06-14T06:05:38;10.68;;;5.60;;
69030;SDS011;56083;48.774;8.942;2023-06-14T06:08:05;14.98;;;4.88;;
69030;SDS011;56083;48.774;8.942;2023-06-14T06:10:30;13.73;;;5.25;;
69030;SDS011;56083;48.774;8.942;2023-06-14T06:12:56;11.65;;;4.85;;
69030;SDS011;56083;48.774;8.942;2023-06-14T06:15:22;7.38;;;4.63;;
69030;SDS011;56083;48.774;8.942;2023-06-14T06:17:47;15.18;;;5.00;;
69030;SDS011;56083;48.774;8.942;2023-06-14T06:20:13;10.80;;;4.70;;
69030;SDS011;56083;48.774;8.942;2023-06-14T06:22:38;9.48;;;5.18;;
69030;SDS011;56083;48.774;8.942;2023-06-14T06:25:04;13.30;;;5.18;;
69030;SDS011;56083;48.774;8.942;2023-06-14T06:27:31;12.32;;;5.10;;
69030;SDS011;56083;48.774;8.942;2023-06-14T06:29:57;11.05;;;5.00;;
69030;SDS011;56083;48.774;8.942;2023-06-14T06:32:22;9.95;;;4.90;;
69030;SDS011;56083;48.774;8.942;2023-06-14T06:34:48;11.07;;;4.88;;
69030;SDS011;56083;48.774;8.942;2023-06-14T06:37:14;16.38;;;4.90;;
69030;SDS011;56083;48.774;8.942;2023-06-14T06:39:40;16.85;;;4.55;;
69030;SDS011;56083;48.774;8.942;2023-06-14T06:42:05;11.52;;;4.55;;
69030;SDS011;56083;48.774;8.942;2023-06-14T06:44:31;11.75;;;4.18;;
69030;SDS011;56083;48.774;8.942;2023-06-14T06:46:57;16.48;;;4.80;;
69030;SDS011;56083;48.774;8.942;2023-06-14T06:49:23;15.20;;;4.07;;
69030;SDS011;56083;48.774;8.942;2023-06-14T06:51:59;10.18;;;3.80;;
69030;SDS011;56083;48.774;8.942;2023-06-14T06:54:26;9.23;;;4.22;;
69030;SDS011;56083;48.774;8.942;2023-06-14T06:56:52;6.00;;;3.88;;
69030;SDS011;56083;48.774;8.942;2023-06-14T06:59:17;9.32;;;4.35;;
69030;SDS011;56083;48.774;8.942;2023-06-14T07:01:43;13.95;;;3.97;;
69030;SDS011;56083;48.774;8.942;2023-06-14T07:04:08;12.48;;;3.55;;
69030;SDS011;56083;48.774;8.942;2023-06-14T07:06:34;11.75;;;3.97;;
69030;SDS011;56083;48.774;8.942;2023-06-14T07:09:00;9.98;;;3.80;;
69030;SDS011;56083;48.774;8.942;2023-06-14T07:11:26;19.25;;;4.18;;
69030;SDS011;56083;48.774;8.942;2023-06-14T07:13:52;10.45;;;4.70;;
69030;SDS011;56083;48.774;8.942;2023-06-14T07:16:18;9.73;;;4.25;;
69030;SDS011;56083;48.774;8.942;2023-06-14T07:18:43;15.18;;;4.15;;
69030;SDS011;56083;48.774;8.942;2023-06-14T07:21:09;14.77;;;4.28;;
69030;SDS011;56083;48.774;8.942;2023-06-14T07:23:35;12.20;;;4.60;;
69030;SDS011;56083;48.774;8.942;2023-06-14T07:26:01;15.65;;;4.10;;
69030;SDS011;56083;48.774;8.942;2023-06-14T07:28:26;20.92;;;4.43;;
69030;SDS011;56083;48.774;8.942;2023-06-14T07:30:52;16.08;;;4.30;;
69030;SDS011;56083;48.774;8.942;2023-06-14T07:33:17;16.50;;;3.67;;
69030;SDS011;56083;48.774;8.942;2023-06-14T07:35:43;12.23;;;4.10;;
69030;SDS011;56083;48.774;8.942;2023-06-14T07:38:09;15.20;;;3.90;;
69030;SDS011;56083;48.774;8.942;2023-06-14T07:40:34;10.13;;;4.47;;
69030;SDS011;56083;48.774;8.942;2023-06-14T07:43:00;16.40;;;4.05;;
69030;SDS011;56083;48.774;8.942;2023-06-14T07:45:27;18.15;;;4.13;;
69030;SDS011;56083;48.774;8.942;2023-06-14T07:47:52;10.73;;;4.50;;
69030;SDS011;56083;48.774;8.942;2023-06-14T07:50:18;12.63;;;3.95;;
69030;SDS011;56083;48.774;8.942;2023-06-14T07:52:44;12.77;;;4.55;;
69030;SDS011;56083;48.774;8.942;2023-06-14T07:55:10;12.55;;;4.38;;
69030;SDS011;56083;48.774;8.942;2023-06-14T07:57:36;12.00;;;4.28;;
69030;SDS011;56083;48.774;8.942;2023-06-14T08:00:03;17.27;;;4.05;;
69030;SDS011;56083;48.774;8.942;2023-06-14T08:02:31;12.75;;;4.15;;
69030;SDS011;56083;48.774;8.942;2023-06-14T08:04:57;8.95;;;3.92;;
69030;SDS011;56083;48.774;8.942;2023-06-14T08:07:23;9.27;;;4.00;;
69030;SDS011;56083;48.774;8.942;2023-06-14T08:09:49;7.68;;;4.18;;
69030;SDS011;56083;48.774;8.942;2023-06-14T08:12:15;11.70;;;3.40;;
69030;SDS011;56083;48.774;8.942;2023-06-14T08:14:41;12.27;;;3.90;;
69030;SDS011;56083;48.774;8.942;2023-06-14T08:17:07;15.23;;;4.13;;
69030;SDS011;56083;48.774;8.942;2023-06-14T08:19:33;9.27;;;4.10;;
69030;SDS011;56083;48.774;8.942;2023-06-14T08:21:58;10.73;;;4.07;;
69030;SDS011;56083;48.774;8.942;2023-06-14T08:24:25;11.38;;;4.40;;
69030;SDS011;56083;48.774;8.942;2023-06-14T08:26:53;10.65;;;4.53;;
69030;SDS011;56083;48.774;8.942;2023-06-14T08:29:19;10.93;;;4.35;;
69030;SDS011;56083;48.774;8.942;2023-06-14T08:31:45;8.55;;;3.67;;
69030;SDS011;56083;48.774;8.942;2023-06-14T08:34:11;10.52;;;4.35;;
69030;SDS011;56083;48.774;8.942;2023-06-14T08:36:37;10.32;;;3.75;;
69030;SDS011;56083;48.774;8.942;2023-06-14T08:39:03;7.40;;;3.42;;
69030;SDS011;56083;48.774;8.942;2023-06-14T08:41:29;11.38;;;4.22;;
69030;SDS011;56083;48.774;8.942;2023-06-14T08:43:55;17.27;;;4.03;;
69030;SDS011;56083;48.774;8.942;2023-06-14T08:46:22;9.45;;;3.60;;
69030;SDS011;56083;48.774;8.942;2023-06-14T08:48:52;8.85;;;3.72;;
69030;SDS011;56083;48.774;8.942;2023-06-14T08:51:22;8.82;;;3.60;;
69030;SDS011;56083;48.774;8.942;2023-06-14T08:53:55;12.80;;;3.30;;
69030;SDS011;56083;48.774;8.942;2023-06-14T08:56:26;13.75;;;3.88;;
69030;SDS011;56083;48.774;8.942;2023-06-14T08:58:54;12.85;;;3.50;;
69030;SDS011;56083;48.774;8.942;2023-06-14T09:01:21;9.18;;;4.00;;
69030;SDS011;56083;48.774;8.942;2023-06-14T09:03:48;6.88;;;3.63;;
69030;SDS011;56083;48.774;8.942;2023-06-14T09:06:15;9.68;;;3.80;;
69030;SDS011;56083;48.774;8.942;2023-06-14T09:08:44;6.82;;;3.90;;
69030;SDS011;56083;48.774;8.942;2023-06-14T09:11:11;9.25;;;3.80;;
69030;SDS011;56083;48.774;8.942;2023-06-14T09:13:38;9.07;;;3.60;;
69030;SDS011;56083;48.774;8.942;2023-06-14T09:16:04;11.68;;;3.83;;
69030;SDS011;56083;48.774;8.942;2023-06-14T09:18:49;10.63;;;3.70;;
69030;SDS011;56083;48.774;8.942;2023-06-14T09:21:16;16.83;;;3.90;;
69030;SDS011;56083;48.774;8.942;2023-06-14T09:23:46;9.90;;;3.45;;
69030;SDS011;56083;48.774;8.942;2023-06-14T09:26:16;8.27;;;3.85;;
69030;SDS011;56083;48.774;8.942;2023-06-14T09:28:45;11.13;;;3.75;;
69030;SDS011;56083;48.774;8.942;2023-06-14T09:31:12;11.23;;;3.85;;
69030;SDS011;56083;48.774;8.942;2023-06-14T09:33:42;6.80;;;3.60;;
69030;SDS011;56083;48.774;8.942;2023-06-14T09:36:16;9.70;;;3.67;;
69030;SDS011;56083;48.774;8.942;2023-06-14T09:38:42;10.23;;;3.47;;
69030;SDS011;56083;48.774;8.942;2023-06-14T09:41:31;11.73;;;3.75;;
69030;SDS011;56083;48.774;8.942;2023-06-14T09:43:58;6.60;;;3.40;;
69030;SDS011;56083;48.774;8.942;2023-06-14T09:49:28;10.23;;;3.35;;
69030;SDS011;56083;48.774;8.942;2023-06-14T09:55:24;10.43;;;3.65;;
69030;SDS011;56083;48.774;8.942;2023-06-14T10:01:29;4.72;;;2.97;;
69030;SDS011;56083;48.774;8.942;2023-06-14T10:04:02;7.35;;;3.10;;
69030;SDS011;56083;48.774;8.942;2023-06-14T10:23:18;8.43;;;3.15;;
69030;SDS011;56083;48.774;8.942;2023-06-14T10:25:54;7.18;;;3.03;;
69030;SDS011;56083;48.774;8.942;2023-06-14T10:28:21;8.57;;;3.28;;
69030;SDS011;56083;48.774;8.942;2023-06-14T10:33:34;9.32;;;3.00;;
69030;SDS011;56083;48.774;8.942;2023-06-14T10:39:17;7.05;;;3.03;;
69030;SDS011;56083;48.774;8.942;2023-06-14T10:41:53;12.15;;;3.50;;
69030;SDS011;56083;48.774;8.942;2023-06-14T10:47:21;12.48;;;3.38;;
69030;SDS011;56083;48.774;8.942;2023-06-14T10:52:58;7.32;;;3.45;;
69030;SDS011;56083;48.774;8.942;2023-06-14T10:55:56;5.72;;;2.95;;
69030;SDS011;56083;48.774;8.942;2023-06-14T10:58:33;9.00;;;2.90;;
69030;SDS011;56083;48.774;8.942;2023-06-14T11:04:04;12.65;;;3.40;;
69030;SDS011;56083;48.774;8.942;2023-06-14T11:06:49;9.48;;;3.00;;
69030;SDS011;56083;48.774;8.942;2023-06-14T11:12:25;8.60;;;3.08;;
69030;SDS011;56083;48.774;8.942;2023-06-14T11:14:53;7.03;;;2.83;;
69030;SDS011;56083;48.774;8.942;2023-06-14T11:17:24;6.03;;;2.83;;
69030;SDS011;56083;48.774;8.942;2023-06-14T11:19:58;13.15;;;2.78;;
69030;SDS011;56083;48.774;8.942;2023-06-14T11:22:44;11.43;;;3.20;;
69030;SDS011;56083;48.774;8.942;2023-06-14T11:25:13;5.53;;;3.00;;
69030;SDS011;56083;48.774;8.942;2023-06-14T11:27:41;3.45;;;2.80;;
69030;SDS011;56083;48.774;8.942;2023-06-14T11:30:08;7.28;;;3.00;;
69030;SDS011;56083;48.774;8.942;2023-06-14T11:32:38;7.97;;;2.70;;
69030;SDS011;56083;48.774;8.942;2023-06-14T11:35:07;10.90;;;3.15;;
69030;SDS011;56083;48.774;8.942;2023-06-14T11:37:36;13.45;;;3.03;;
69030;SDS011;56083;48.774;8.942;2023-06-14T11:40:03;6.47;;;2.85;;
69030;SDS011;56083;48.774;8.942;2023-06-14T11:42:41;14.70;;;3.13;;
69030;SDS011;56083;48.774;8.942;2023-06-14T11:45:07;6.63;;;2.75;;
69030;SDS011;56083;48.774;8.942;2023-06-14T11:47:38;7.40;;;3.20;;
69030;SDS011;56083;48.774;8.942;2023-06-14T11:50:05;5.25;;;2.92;;
69030;SDS011;56083;48.774;8.942;2023-06-14T11:52:33;8.05;;;3.05;;
69030;SDS011;56083;48.774;8.942;2023-06-14T11:54:59;7.07;;;2.75;;
69030;SDS011;56083;48.774;8.942;2023-06-14T11:57:26;7.78;;;2.88;;
69030;SDS011;56083;48.774;8.942;2023-06-14T11:59:51;9.55;;;3.05;;
69030;SDS011;56083;48.774;8.942;2023-06-14T12:02:22;7.85;;;3.17;;
69030;SDS011;56083;48.774;8.942;2023-06-14T12:04:53;6.13;;;2.70;;
69030;SDS011;56083;48.774;8.942;2023-06-14T12:07:18;11.15;;;3.08;;
69030;SDS011;56083;48.774;8.942;2023-06-14T12:12:18;7.85;;;3.10;;
69030;SDS011;56083;48.774;8.942;2023-06-14T12:14:49;6.93;;;2.72;;
69030;SDS011;56083;48.774;8.942;2023-06-14T12:17:16;11.02;;;3.25;;
69030;SDS011;56083;48.774;8.942;2023-06-14T12:19:51;4.25;;;2.88;;
69030;SDS011;56083;48.774;8.942;2023-06-14T12:22:20;8.82;;;2.72;;
69030;SDS011;56083;48.774;8.942;2023-06-14T12:24:48;10.40;;;3.25;;
69030;SDS011;56083;48.774;8.942;2023-06-14T12:27:16;7.00;;;3.03;;
69030;SDS011;56083;48.774;8.942;2023-06-14T12:29:44;7.82;;;2.70;;
69030;SDS011;56083;48.774;8.942;2023-06-14T12:32:10;10.77;;;3.10;;
69030;SDS011;56083;48.774;8.942;2023-06-14T12:34:36;10.65;;;3.97;;
69030;SDS011;56083;48.774;8.942;2023-06-14T12:37:02;4.68;;;2.85;;
69030;SDS011;56083;48.774;8.942;2023-06-14T12:39:31;6.15;;;2.78;;
69030;SDS011;56083;48.774;8.942;2023-06-14T12:41:57;9.18;;;3.00;;
69030;SDS011;56083;48.774;8.942;2023-06-14T12:44:24;6.78;;;3.10;;
69030;SDS011;56083;48.774;8.942;2023-06-14T12:46:50;6.70;;;2.78;;
69030;SDS011;56083;48.774;8.942;2023-06-14T12:49:18;7.05;;;2.75;;
69030;SDS011;56083;48.774;8.942;2023-06-14T12:51:45;9.93;;;2.90;;
69030;SDS011;56083;48.774;8.942;2023-06-14T12:54:10;5.38;;;2.90;;
69030;SDS011;56083;48.774;8.942;2023-06-14T12:56:37;9.40;;;2.90;;
69030;SDS011;56083;48.774;8.942;2023-06-14T12:59:04;5.68;;;3.10;;
69030;SDS011;56083;48.774;8.942;2023-06-14T13:01:31;8.32;;;3.42;;
69030;SDS011;56083;48.774;8.942;2023-06-14T13:03:56;8.60;;;2.85;;
69030;SDS011;56083;48.774;8.942;2023-06-14T13:06:22;7.75;;;2.70;;
69030;SDS011;56083;48.774;8.942;2023-06-14T13:08:48;6.15;;;2.58;;
69030;SDS011;56083;48.774;8.942;2023-06-14T13:11:14;7.10;;;2.60;;
69030;SDS011;56083;48.774;8.942;2023-06-14T13:13:39;10.30;;;3.15;;
69030;SDS011;56083;48.774;8.942;2023-06-14T13:16:05;7.75;;;3.10;;
69030;SDS011;56083;48.774;8.942;2023-06-14T13:18:31;7.03;;;2.80;;
69030;SDS011;56083;48.774;8.942;2023-06-14T13:20:57;5.55;;;2.55;;
69030;SDS011;56083;48.774;8.942;2023-06-14T13:23:23;5.45;;;2.70;;
69030;SDS011;56083;48.774;8.942;2023-06-14T13:25:48;6.63;;;2.92;;
69030;SDS011;56083;48.774;8.942;2023-06-14T13:28:16;6.45;;;2.72;;
69030;SDS011;56083;48.774;8.942;2023-06-14T13:30:41;7.22;;;2.67;;
69030;SDS011;56083;48.774;8.942;2023-06-14T13:33:07;5.15;;;2.55;;
69030;SDS011;56083;48.774;8.942;2023-06-14T13:35:33;6.55;;;2.60;;
69030;SDS011;56083;48.774;8.942;2023-06-14T13:37:58;5.30;;;2.95;;
69030;SDS011;56083;48.774;8.942;2023-06-14T13:40:24;11.25;;;2.47;;
69030;SDS011;56083;48.774;8.942;2023-06-14T13:42:51;11.60;;;2.47;;
69030;SDS011;56083;48.774;8.942;2023-06-14T13:45:16;3.92;;;2.50;;
69030;SDS011;56083;48.774;8.942;2023-06-14T13:47:42;7.07;;;2.65;;
69030;SDS011;56083;48.774;8.942;2023-06-14T13:50:07;8.05;;;2.58;;
69030;SDS011;56083;48.774;8.942;2023-06-14T13:52:33;8.50;;;2.97;;
69030;SDS011;56083;48.774;8.942;2023-06-14T13:54:59;6.28;;;2.90;;
69030;SDS011;56083;48.774;8.942;2023-06-14T13:57:25;6.32;;;2.75;;
69030;SDS011;56083;48.774;8.942;2023-06-14T13:59:51;9.50;;;2.70;;
69030;SDS011;56083;48.774;8.942;2023-06-14T14:02:20;3.22;;;2.50;;
69030;SDS011;56083;48.774;8.942;2023-06-14T14:04:46;8.73;;;2.65;;
69030;SDS011;56083;48.774;8.942;2023-06-14T14:07:17;7.45;;;2.65;;
69030;SDS011;56083;48.774;8.942;2023-06-14T14:09:44;5.05;;;2.58;;
69030;SDS011;56083;48.774;8.942;2023-06-14T14:12:09;5.82;;;2.70;;
69030;SDS011;56083;48.774;8.942;2023-06-14T14:14:36;6.53;;;2.72;;
69030;SDS011;56083;48.774;8.942;2023-06-14T14:17:02;5.28;;;2.47;;
69030;SDS011;56083;48.774;8.942;2023-06-14T14:19:29;4.75;;;2.70;;
69030;SDS011;56083;48.774;8.942;2023-06-14T14:21:54;9.45;;;2.83;;
69030;SDS011;56083;48.774;8.942;2023-06-14T14:24:20;6.78;;;2.63;;
69030;SDS011;56083;48.774;8.942;2023-06-14T14:26:45;8.90;;;2.97;;
69030;SDS011;56083;48.774;8.942;2023-06-14T14:29:13;7.15;;;3.13;;
69030;SDS011;56083;48.774;8.942;2023-06-14T14:31:39;9.75;;;2.83;;
69030;SDS011;56083;48.774;8.942;2023-06-14T14:34:05;8.18;;;2.95;;
69030;SDS011;56083;48.774;8.942;2023-06-14T14:36:31;5.18;;;2.78;;
69030;SDS011;56083;48.774;8.942;2023-06-14T14:38:58;13.63;;;3.22;;
69030;SDS011;56083;48.774;8.942;2023-06-14T14:41:24;7.00;;;2.67;;
69030;SDS011;56083;48.774;8.942;2023-06-14T14:43:50;5.82;;;2.60;;
69030;SDS011;56083;48.774;8.942;2023-06-14T14:46:15;7.32;;;2.75;;
69030;SDS011;56083;48.774;8.942;2023-06-14T14:48:41;8.07;;;2.50;;
69030;SDS011;56083;48.774;8.942;2023-06-14T14:51:07;4.13;;;2.78;;
69030;SDS011;56083;48.774;8.942;2023-06-14T14:53:33;7.57;;;2.80;;
69030;SDS011;56083;48.774;8.942;2023-06-14T14:55:58;9.68;;;2.40;;
69030;SDS011;56083;48.774;8.942;2023-06-14T14:58:24;8.15;;;2.47;;
69030;SDS011;56083;48.774;8.942;2023-06-14T15:00:50;6.25;;;2.78;;
69030;SDS011;56083;48.774;8.942;2023-06-14T15:03:16;8.13;;;2.88;;
69030;SDS011;56083;48.774;8.942;2023-06-14T15:05:41;6.65;;;2.90;;
69030;SDS011;56083;48.774;8.942;2023-06-14T15:08:07;5.30;;;2.80;;
69030;SDS011;56083;48.774;8.942;2023-06-14T15:10:37;9.48;;;3.00;;
69030;SDS011;56083;48.774;8.942;2023-06-14T15:13:05;10.30;;;2.83;;
69030;SDS011;56083;48.774;8.942;2023-06-14T15:15:31;6.72;;;2.90;;
69030;SDS011;56083;48.774;8.942;2023-06-14T15:17:56;8.20;;;2.75;;
69030;SDS011;56083;48.774;8.942;2023-06-14T15:20:22;6.80;;;2.97;;
69030;SDS011;56083;48.774;8.942;2023-06-14T15:22:48;4.85;;;2.97;;
69030;SDS011;56083;48.774;8.942;2023-06-14T15:25:13;6.15;;;2.85;;
69030;SDS011;56083;48.774;8.942;2023-06-14T15:27:39;8.52;;;2.80;;
69030;SDS011;56083;48.774;8.942;2023-06-14T15:30:05;7.63;;;2.67;;
69030;SDS011;56083;48.774;8.942;2023-06-14T15:32:31;6.38;;;2.30;;
69030;SDS011;56083;48.774;8.942;2023-06-14T15:34:57;5.65;;;2.60;;
69030;SDS011;56083;48.774;8.942;2023-06-14T15:37:22;6.30;;;2.95;;